Time;durP1;ratioP1;P1;durP2;ratioP2;P2;SDS_P1;SDS_P2;PMS_P1;PMS_P2;Temp;Humidity;BMP_temperature;BMP_pressure;BME280_temperature;BME280_humidity;BME280_pressure;Samples;Min_cycle;Max_cycle;Signal;HPM_P1;HPM_P2
2023/09/06 00:02:02;;;;;;;15.10;11.98;;;18.80;99.90;;;;;;5044249;28;20558;-62
2023/09/06 00:04:28;;;;;;;16.40;11.00;;;18.80;99.90;;;;;;5044854;28;20037;-63
2023/09/06 00:06:53;;;;;;;16.52;11.40;;;18.80;99.90;;;;;;5044502;28;20055;-64
2023/09/06 00:09:19;;;;;;;14.15;11.80;;;18.80;99.90;;;;;;5044985;28;20138;-63
2023/09/06 00:11:45;;;;;;;17.40;12.13;;;18.80;99.90;;;;;;5044556;28;20044;-63
2023/09/06 00:14:12;;;;;;;13.27;10.10;;;18.80;99.90;;;;;;5044631;28;20044;-64
2023/09/06 00:16:37;;;;;;;20.52;13.02;;;18.80;99.90;;;;;;5044070;28;20119;-64
2023/09/06 00:19:03;;;;;;;18.08;12.30;;;18.80;99.90;;;;;;5046700;28;20496;-63
2023/09/06 00:21:29;;;;;;;16.00;11.70;;;18.70;99.90;;;;;;5048038;28;20056;-63
2023/09/06 00:23:55;;;;;;;18.83;12.52;;;18.70;99.90;;;;;;5048173;28;20051;-65
2023/09/06 00:26:21;;;;;;;13.30;10.10;;;18.70;99.90;;;;;;5046902;28;20068;-64
2023/09/06 00:28:47;;;;;;;16.05;11.68;;;18.60;99.90;;;;;;5046514;28;20041;-63
2023/09/06 00:31:12;;;;;;;15.65;10.68;;;18.50;99.90;;;;;;5047106;28;20477;-65
2023/09/06 00:33:38;;;;;;;12.68;9.57;;;18.50;99.90;;;;;;5047949;28;20041;-63
2023/09/06 00:36:06;;;;;;;13.25;10.27;;;18.40;99.90;;;;;;5047373;28;20661;-65
2023/09/06 00:38:32;;;;;;;14.18;11.13;;;18.30;99.90;;;;;;5031161;28;20064;-65
2023/09/06 00:40:58;;;;;;;16.73;12.88;;;18.30;99.90;;;;;;5063103;28;20841;-63
2023/09/06 00:43:23;;;;;;;16.67;11.65;;;18.20;99.90;;;;;;5047726;28;20033;-64
2023/09/06 00:45:50;;;;;;;18.42;11.63;;;18.10;99.90;;;;;;5047159;28;20040;-64
2023/09/06 00:48:23;;;;;;;16.45;12.48;;;18.10;99.90;;;;;;5049287;28;20037;-63
2023/09/06 00:50:53;;;;;;;21.48;13.07;;;18.00;99.90;;;;;;5046756;28;20346;-64
2023/09/06 00:53:20;;;;;;;18.60;10.88;;;18.00;99.90;;;;;;5047524;28;20033;-63
2023/09/06 00:55:48;;;;;;;13.30;8.90;;;18.00;99.90;;;;;;5047894;28;20349;-64
2023/09/06 00:58:16;;;;;;;13.60;8.30;;;17.90;99.90;;;;;;5046128;28;20049;-63
2023/09/06 01:00:43;;;;;;;13.65;7.47;;;17.90;99.90;;;;;;5046261;28;20053;-64
2023/09/06 01:03:09;;;;;;;11.88;8.45;;;17.80;99.90;;;;;;5048757;28;20056;-65
2023/09/06 01:05:51;;;;;;;16.88;9.93;;;17.80;99.90;;;;;;5030643;28;20092;-62
2023/09/06 01:08:24;;;;;;;12.20;9.48;;;17.80;99.90;;;;;;5047296;28;20080;-66
2023/09/06 01:10:50;;;;;;;12.07;9.02;;;17.70;99.90;;;;;;5046003;28;20037;-63
2023/09/06 01:13:17;;;;;;;12.07;8.80;;;17.70;99.90;;;;;;5028656;28;20040;-63
2023/09/06 01:15:44;;;;;;;14.88;9.98;;;17.60;99.90;;;;;;5046476;28;20041;-63
2023/09/06 01:18:12;;;;;;;15.98;10.68;;;17.60;99.90;;;;;;5046396;28;20538;-63
2023/09/06 01:20:52;;;;;;;12.65;9.93;;;17.60;99.90;;;;;;5046617;28;20052;-64
2023/09/06 01:23:40;;;;;;;14.65;11.35;;;17.60;99.90;;;;;;5046884;28;20037;-64
2023/09/06 01:26:05;;;;;;;14.80;9.95;;;17.50;99.90;;;;;;5045876;28;20408;-64
2023/09/06 01:28:32;;;;;;;13.27;10.27;;;17.50;99.90;;;;;;5045170;28;20037;-63
2023/09/06 01:31:01;;;;;;;19.10;9.60;;;17.50;99.90;;;;;;5044885;28;20055;-63
2023/09/06 01:33:28;;;;;;;16.67;12.15;;;17.50;99.90;;;;;;5048295;28;20040;-63
2023/09/06 01:35:54;;;;;;;14.23;8.80;;;17.40;99.90;;;;;;5048229;28;20037;-63
2023/09/06 01:38:20;;;;;;;12.20;7.30;;;17.40;99.90;;;;;;5046188;28;20036;-62
2023/09/06 01:40:46;;;;;;;14.05;9.77;;;17.40;99.90;;;;;;5047496;28;20368;-64
2023/09/06 01:43:12;;;;;;;12.32;8.15;;;17.30;99.90;;;;;;5044869;28;20072;-65
2023/09/06 01:45:44;;;;;;;14.32;11.02;;;17.30;99.90;;;;;;5048085;28;20037;-64
2023/09/06 01:48:09;;;;;;;14.55;10.32;;;17.20;99.90;;;;;;5048196;28;20039;-62
2023/09/06 01:50:35;;;;;;;16.58;12.52;;;17.20;99.90;;;;;;5025562;28;20128;-62
2023/09/06 01:53:00;;;;;;;13.13;10.38;;;17.20;99.90;;;;;;5026355;28;20115;-64
2023/09/06 01:55:26;;;;;;;14.07;11.80;;;17.20;99.90;;;;;;5027628;28;20042;-63
2023/09/06 01:57:52;;;;;;;14.57;11.15;;;17.20;99.90;;;;;;5036676;28;20041;-63
2023/09/06 02:00:26;;;;;;;15.95;11.52;;;17.20;99.90;;;;;;5047223;28;20099;-63
2023/09/06 02:02:53;;;;;;;16.05;12.20;;;17.20;99.90;;;;;;5046155;28;20428;-63
2023/09/06 02:05:19;;;;;;;14.48;10.80;;;17.20;99.90;;;;;;5063050;28;20476;-64
2023/09/06 02:07:45;;;;;;;14.70;11.55;;;17.20;99.90;;;;;;5062416;28;20127;-65
2023/09/06 02:10:11;;;;;;;15.02;11.07;;;17.20;99.90;;;;;;5047339;28;20044;-66
2023/09/06 02:12:37;;;;;;;16.08;11.70;;;17.20;99.90;;;;;;5042583;28;20033;-64
2023/09/06 02:15:05;;;;;;;14.88;11.10;;;17.20;99.90;;;;;;5062371;28;20048;-65
2023/09/06 02:17:31;;;;;;;13.93;10.77;;;17.20;99.90;;;;;;5047417;28;20144;-64
2023/09/06 02:19:57;;;;;;;12.65;10.93;;;17.20;99.90;;;;;;5044804;28;20053;-65
2023/09/06 02:22:22;;;;;;;13.43;10.77;;;17.20;99.90;;;;;;5047438;28;20040;-63
2023/09/06 02:24:48;;;;;;;12.80;10.32;;;17.20;99.90;;;;;;5045567;28;20053;-62
2023/09/06 02:27:13;;;;;;;12.20;9.57;;;17.10;99.90;;;;;;5042747;28;20040;-62
2023/09/06 02:29:41;;;;;;;15.40;10.85;;;17.10;99.90;;;;;;5046681;28;20041;-66
2023/09/06 02:32:07;;;;;;;12.50;9.60;;;17.10;99.90;;;;;;5044916;28;20550;-64
2023/09/06 02:34:34;;;;;;;13.30;9.25;;;17.00;99.90;;;;;;5047111;28;20044;-63
2023/09/06 02:36:59;;;;;;;14.98;11.20;;;16.90;99.90;;;;;;5045798;28;20514;-64
2023/09/06 02:39:25;;;;;;;10.02;8.02;;;16.80;99.90;;;;;;5045992;28;20045;-63
2023/09/06 02:41:51;;;;;;;10.73;7.72;;;16.80;99.90;;;;;;5059978;28;20037;-63
2023/09/06 02:44:17;;;;;;;9.52;7.43;;;16.70;99.90;;;;;;5028457;28;20044;-63
2023/09/06 02:46:43;;;;;;;10.65;7.35;;;16.70;99.90;;;;;;5045790;28;20041;-64
2023/09/06 02:49:12;;;;;;;11.35;7.55;;;16.70;99.90;;;;;;5045653;28;20033;-63
2023/09/06 02:51:42;;;;;;;10.70;7.95;;;16.70;99.90;;;;;;5045447;28;20037;-62
2023/09/06 02:54:09;;;;;;;9.73;7.53;;;16.60;99.90;;;;;;5061929;28;20044;-63
2023/09/06 02:56:37;;;;;;;10.75;9.07;;;16.60;99.90;;;;;;5042983;28;20084;-62
2023/09/06 02:59:03;;;;;;;9.93;8.35;;;16.60;99.90;;;;;;5026342;28;20106;-62
2023/09/06 03:01:30;;;;;;;9.65;7.70;;;16.50;99.90;;;;;;5026215;28;20053;-64
2023/09/06 03:03:58;;;;;;;8.85;6.90;;;16.50;99.90;;;;;;5025553;28;20513;-64
2023/09/06 03:06:33;;;;;;;9.40;6.65;;;16.40;99.90;;;;;;5039299;28;20052;-63
2023/09/06 03:09:00;;;;;;;9.43;5.93;;;16.40;99.90;;;;;;5046612;28;20074;-63
2023/09/06 03:11:25;;;;;;;9.48;5.75;;;16.40;99.90;;;;;;5043909;28;20044;-63
2023/09/06 03:13:57;;;;;;;10.68;7.30;;;16.40;99.90;;;;;;5044935;28;20048;-63
2023/09/06 03:16:22;;;;;;;19.08;14.15;;;16.40;99.90;;;;;;5044842;28;20052;-64
2023/09/06 03:18:53;;;;;;;18.55;15.55;;;16.30;99.90;;;;;;5059779;28;20036;-64
2023/09/06 03:21:19;;;;;;;19.88;15.05;;;16.40;99.90;;;;;;5061952;28;20052;-64
2023/09/06 03:23:45;;;;;;;23.20;16.77;;;16.40;99.90;;;;;;5059808;28;20041;-65
2023/09/06 03:26:12;;;;;;;21.25;15.52;;;16.40;99.90;;;;;;5045413;28;20094;-64
2023/09/06 03:28:40;;;;;;;17.05;12.98;;;16.50;99.90;;;;;;5044916;28;20041;-64
2023/09/06 03:31:08;;;;;;;16.63;12.07;;;16.50;99.90;;;;;;5056095;28;20045;-65
2023/09/06 03:33:39;;;;;;;15.52;12.57;;;16.50;99.90;;;;;;5024986;28;20041;-64
2023/09/06 03:36:09;;;;;;;15.35;12.13;;;16.50;99.90;;;;;;5027329;28;20037;-64
2023/09/06 03:38:36;;;;;;;17.80;14.75;;;16.40;99.90;;;;;;5046338;28;20033;-64
2023/09/06 03:41:02;;;;;;;23.25;17.27;;;16.40;99.90;;;;;;5045212;28;20052;-64
2023/09/06 03:43:32;;;;;;;23.48;17.40;;;16.40;99.90;;;;;;5043279;28;20044;-64
2023/09/06 03:45:59;;;;;;;26.13;19.05;;;16.40;99.90;;;;;;5044674;28;20049;-64
2023/09/06 03:48:27;;;;;;;20.95;16.25;;;16.40;99.90;;;;;;5043609;28;20044;-62
2023/09/06 03:51:00;;;;;;;18.67;14.88;;;16.40;99.90;;;;;;5043554;28;20578;-63
2023/09/06 03:53:26;;;;;;;17.75;14.25;;;16.40;99.90;;;;;;5064038;28;20287;-63
2023/09/06 03:56:00;;;;;;;19.20;15.00;;;16.30;99.90;;;;;;5049307;28;20056;-66
2023/09/06 03:58:27;;;;;;;23.33;10.45;;;16.30;99.90;;;;;;5048728;28;20040;-64
2023/09/06 04:00:53;;;;;;;20.70;12.00;;;16.20;99.90;;;;;;5049681;28;20036;-64
2023/09/06 04:03:20;;;;;;;17.50;10.07;;;16.20;99.90;;;;;;5047354;28;20061;-65
2023/09/06 04:05:46;;;;;;;52.75;10.73;;;16.10;99.90;;;;;;5049927;28;20472;-63
2023/09/06 04:08:17;;;;;;;15.30;11.10;;;16.00;99.90;;;;;;5047868;28;20041;-63
2023/09/06 04:10:44;;;;;;;13.80;11.13;;;15.90;99.90;;;;;;5047523;28;20052;-65
2023/09/06 04:13:11;;;;;;;13.43;11.18;;;15.90;99.90;;;;;;5026242;28;20095;-63
2023/09/06 04:15:38;;;;;;;14.32;12.10;;;15.90;99.90;;;;;;5027679;28;20041;-64
2023/09/06 04:18:06;;;;;;;14.13;10.10;;;15.90;99.90;;;;;;5045037;28;20057;-64
2023/09/06 04:20:36;;;;;;;15.02;11.13;;;15.90;99.90;;;;;;5039744;28;20075;-65
2023/09/06 04:23:06;;;;;;;13.50;11.20;;;15.80;99.90;;;;;;5048010;28;20063;-64
2023/09/06 04:25:41;;;;;;;16.67;9.95;;;15.80;99.90;;;;;;5047704;28;20493;-65
2023/09/06 04:28:08;;;;;;;27.20;11.30;;;15.70;99.90;;;;;;5047522;28;20298;-64
2023/09/06 04:30:36;;;;;;;19.20;13.25;;;15.70;99.90;;;;;;5048764;28;20045;-63
2023/09/06 04:33:03;;;;;;;16.20;11.68;;;15.70;99.90;;;;;;5049610;28;20060;-64
2023/09/06 04:35:34;;;;;;;14.35;11.75;;;15.60;99.90;;;;;;5063910;28;20045;-66
2023/09/06 04:38:02;;;;;;;17.55;11.63;;;15.70;99.90;;;;;;5049141;28;20420;-65
2023/09/06 04:40:29;;;;;;;24.20;10.77;;;15.60;99.90;;;;;;5047784;28;20077;-64
2023/09/06 04:42:55;;;;;;;96.65;13.80;;;15.60;99.90;;;;;;5046532;28;20459;-64
2023/09/06 04:45:20;;;;;;;24.70;9.73;;;15.50;99.90;;;;;;5046295;28;20124;-62
2023/09/06 04:47:46;;;;;;;94.72;12.07;;;15.50;99.90;;;;;;5047045;28;20120;-64
2023/09/06 04:50:12;;;;;;;13.10;10.20;;;15.40;99.90;;;;;;5046164;28;20048;-63
2023/09/06 04:52:46;;;;;;;16.00;12.07;;;15.40;99.90;;;;;;5048877;28;20037;-63
2023/09/06 04:55:15;;;;;;;17.23;13.43;;;15.40;99.90;;;;;;5047576;28;20045;-64
2023/09/06 04:57:41;;;;;;;13.98;10.25;;;15.30;99.90;;;;;;5046200;28;20122;-63
2023/09/06 05:00:16;;;;;;;25.08;11.20;;;15.30;99.90;;;;;;5047150;28;20626;-63
2023/09/06 05:02:43;;;;;;;21.67;11.55;;;15.30;99.90;;;;;;5063100;28;20060;-63
2023/09/06 05:05:09;;;;;;;20.17;13.27;;;15.30;99.90;;;;;;5046427;28;20462;-65
2023/09/06 05:07:35;;;;;;;26.58;14.20;;;15.30;99.90;;;;;;5046030;28;20045;-66
2023/09/06 05:10:01;;;;;;;20.48;14.15;;;15.30;99.90;;;;;;5047003;28;20047;-64
2023/09/06 05:12:26;;;;;;;20.00;13.82;;;15.30;99.90;;;;;;5045877;28;20036;-66
2023/09/06 05:14:54;;;;;;;17.52;13.45;;;15.30;99.90;;;;;;5046609;28;20622;-64
2023/09/06 05:17:19;;;;;;;19.20;12.65;;;15.40;99.90;;;;;;5046926;28;20048;-64
2023/09/06 05:19:54;;;;;;;16.40;12.00;;;15.60;99.90;;;;;;5046297;28;20044;-67
2023/09/06 05:22:22;;;;;;;13.88;10.48;;;15.80;99.90;;;;;;5046897;28;20041;-65
2023/09/06 05:24:49;;;;;;;13.07;10.48;;;15.90;99.90;;;;;;5046900;28;20045;-64
2023/09/06 05:27:15;;;;;;;14.30;10.15;;;16.10;99.90;;;;;;5044453;28;20033;-64
2023/09/06 05:29:41;;;;;;;12.93;10.13;;;16.20;99.90;;;;;;5029446;28;20033;-64
2023/09/06 05:32:06;;;;;;;14.35;9.95;;;16.40;99.90;;;;;;5045899;28;20029;-65
2023/09/06 05:34:32;;;;;;;13.38;10.43;;;16.60;99.90;;;;;;5046627;28;20531;-65
2023/09/06 05:36:57;;;;;;;15.93;8.73;;;16.80;99.90;;;;;;5028465;28;20037;-64
2023/09/06 05:39:23;;;;;;;12.68;7.93;;;17.00;99.90;;;;;;5047556;28;20071;-65
2023/09/06 05:41:50;;;;;;;12.80;7.80;;;17.20;99.90;;;;;;5044818;28;20041;-64
2023/09/06 05:44:16;;;;;;;9.93;6.97;;;17.40;99.90;;;;;;5047681;28;20049;-65
2023/09/06 05:46:43;;;;;;;11.93;7.53;;;17.60;99.90;;;;;;5045770;28;21595;-62
2023/09/06 05:49:09;;;;;;;9.30;6.90;;;17.80;99.90;;;;;;5022818;28;20033;-63
2023/09/06 05:51:35;;;;;;;10.25;6.90;;;18.00;99.90;;;;;;5029456;28;20037;-63
2023/09/06 05:54:00;;;;;;;11.95;6.82;;;18.20;99.90;;;;;;5046581;28;20037;-63
2023/09/06 05:56:26;;;;;;;9.75;6.50;;;18.40;99.90;;;;;;5043871;28;20047;-62
2023/09/06 05:58:52;;;;;;;11.50;6.80;;;18.50;99.90;;;;;;5043891;28;20895;-61
2023/09/06 06:01:18;;;;;;;15.10;7.25;;;18.70;99.90;;;;;;5046939;28;20045;-62
2023/09/06 06:03:44;;;;;;;9.20;5.85;;;18.90;99.90;;;;;;5062839;28;20408;-63
2023/09/06 06:06:16;;;;;;;9.68;6.28;;;19.00;99.90;;;;;;5044991;28;20049;-62
2023/09/06 06:08:41;;;;;;;9.48;6.15;;;19.20;99.90;;;;;;5047911;28;20041;-61
2023/09/06 06:11:11;;;;;;;14.07;6.50;;;19.20;99.90;;;;;;5045523;28;20033;-62
2023/09/06 06:13:37;;;;;;;12.43;6.93;;;19.40;99.90;;;;;;5044908;28;20128;-62
2023/09/06 06:16:06;;;;;;;8.93;6.25;;;19.50;99.90;;;;;;5045348;28;20144;-64
2023/09/06 06:18:32;;;;;;;10.93;6.13;;;19.60;99.90;;;;;;5047470;28;20041;-62
2023/09/06 06:20:58;;;;;;;10.10;6.40;;;19.90;99.90;;;;;;5046281;28;20049;-62
2023/09/06 06:23:24;;;;;;;9.40;6.28;;;20.20;99.90;;;;;;5045119;28;20049;-63
2023/09/06 06:25:50;;;;;;;13.15;6.20;;;20.70;99.90;;;;;;5045089;28;20178;-65
2023/09/06 06:28:15;;;;;;;10.27;6.57;;;20.90;99.90;;;;;;5043993;28;20143;-62
2023/09/06 06:30:41;;;;;;;10.15;6.13;;;20.70;99.90;;;;;;5044982;28;20037;-64
2023/09/06 06:33:07;;;;;;;9.05;6.07;;;20.70;99.90;;;;;;5062550;28;20094;-63
2023/09/06 06:35:33;;;;;;;14.23;6.57;;;20.80;99.90;;;;;;5061291;28;20036;-63
2023/09/06 06:37:58;;;;;;;9.82;6.07;;;20.80;99.90;;;;;;5046907;28;20033;-61
2023/09/06 06:40:26;;;;;;;11.38;6.03;;;20.90;99.90;;;;;;5044930;28;20056;-63
2023/09/06 06:42:51;;;;;;;9.55;6.07;;;20.90;99.90;;;;;;5043254;28;20044;-64
2023/09/06 06:45:17;;;;;;;9.13;5.88;;;20.90;99.90;;;;;;5046334;28;20605;-63
2023/09/06 06:47:42;;;;;;;10.38;6.05;;;21.00;99.90;;;;;;5027708;28;20128;-63
2023/09/06 06:50:09;;;;;;;8.90;5.95;;;21.00;99.90;;;;;;5045404;28;20431;-62
2023/09/06 06:52:36;;;;;;;10.82;5.85;;;21.10;99.90;;;;;;5043944;28;20072;-63
2023/09/06 06:55:03;;;;;;;9.18;5.72;;;21.10;99.90;;;;;;5046718;28;20045;-61
2023/09/06 06:57:30;;;;;;;9.82;5.88;;;21.20;99.90;;;;;;5042927;28;20052;-64
2023/09/06 06:59:56;;;;;;;9.43;5.97;;;21.20;99.90;;;;;;5045063;28;20536;-62
2023/09/06 07:02:21;;;;;;;10.10;6.03;;;21.40;99.90;;;;;;5046609;28;20215;-61
2023/09/06 07:04:47;;;;;;;10.52;6.35;;;21.40;99.90;;;;;;5027686;28;20098;-63
2023/09/06 07:07:13;;;;;;;10.30;6.57;;;21.50;99.90;;;;;;5046553;28;20490;-61
2023/09/06 07:09:41;;;;;;;10.05;5.55;;;21.60;99.90;;;;;;5045288;28;20128;-62
2023/09/06 07:12:06;;;;;;;10.10;6.35;;;21.60;99.90;;;;;;5042309;28;20068;-63
2023/09/06 07:14:32;;;;;;;11.68;5.88;;;21.60;99.90;;;;;;5045951;28;20523;-62
2023/09/06 07:16:58;;;;;;;9.82;6.35;;;21.60;99.90;;;;;;5044021;28;20107;-62
2023/09/06 07:19:24;;;;;;;11.48;6.55;;;21.60;99.90;;;;;;5028412;28;20458;-62
2023/09/06 07:21:50;;;;;;;10.07;6.68;;;21.60;99.90;;;;;;5042483;28;20044;-64
2023/09/06 07:24:15;;;;;;;9.55;6.30;;;21.70;99.90;;;;;;5044009;28;20041;-63
2023/09/06 07:26:41;;;;;;;12.30;6.35;;;21.70;99.90;;;;;;5044061;28;20041;-62
2023/09/06 07:29:06;;;;;;;10.23;5.95;;;21.70;99.90;;;;;;5044935;28;20036;-63
2023/09/06 07:31:32;;;;;;;12.43;5.90;;;21.80;99.90;;;;;;5028096;28;20158;-64
2023/09/06 07:33:58;;;;;;;8.43;5.60;;;21.90;99.90;;;;;;5044886;28;20091;-64
2023/09/06 07:36:24;;;;;;;10.30;5.28;;;22.00;99.90;;;;;;5044945;28;20041;-62
2023/09/06 07:38:54;;;;;;;9.63;6.10;;;22.00;99.90;;;;;;5028017;28;20028;-63
2023/09/06 07:41:20;;;;;;;10.57;5.88;;;22.10;99.90;;;;;;5044772;28;20435;-65
2023/09/06 07:43:46;;;;;;;14.82;5.57;;;22.20;99.90;;;;;;5044431;28;20041;-63
2023/09/06 07:46:12;;;;;;;9.55;5.20;;;22.30;99.90;;;;;;5027832;28;20052;-64
2023/09/06 07:48:38;;;;;;;9.27;4.85;;;22.30;99.90;;;;;;5044454;28;20045;-62
2023/09/06 07:51:05;;;;;;;7.78;4.82;;;22.40;99.90;;;;;;5060462;28;20508;-62
2023/09/06 07:53:31;;;;;;;9.15;4.95;;;22.40;99.90;;;;;;5027903;28;20045;-62
2023/09/06 07:55:56;;;;;;;8.05;4.80;;;22.50;99.90;;;;;;5044538;28;20049;-64
2023/09/06 07:58:22;;;;;;;8.60;4.40;;;22.60;99.90;;;;;;5026433;28;20047;-62
2023/09/06 08:00:49;;;;;;;7.95;4.50;;;22.70;99.90;;;;;;5027572;28;20075;-64
2023/09/06 08:03:15;;;;;;;13.43;4.88;;;22.70;99.90;;;;;;5045648;28;20057;-65
2023/09/06 08:05:40;;;;;;;9.23;4.60;;;22.80;99.90;;;;;;5044099;28;20068;-62
2023/09/06 08:08:11;;;;;;;8.73;4.20;;;22.90;99.90;;;;;;5027753;28;20040;-64
2023/09/06 08:10:38;;;;;;;10.43;3.85;;;23.00;99.90;;;;;;5044878;28;20668;-64
2023/09/06 08:13:04;;;;;;;7.03;3.72;;;23.10;99.90;;;;;;5043232;28;20045;-63
2023/09/06 08:15:37;;;;;;;9.88;3.97;;;23.20;99.90;;;;;;5043710;28;20672;-61
2023/09/06 08:18:04;;;;;;;6.40;3.40;;;23.30;99.90;;;;;;5044519;28;20048;-64
2023/09/06 08:20:31;;;;;;;8.55;3.42;;;23.50;99.90;;;;;;5043687;28;20080;-64
2023/09/06 08:22:57;;;;;;;8.27;3.38;;;23.80;99.90;;;;;;5027672;28;20041;-61
2023/09/06 08:25:22;;;;;;;5.95;3.15;;;23.90;99.90;;;;;;5043909;28;20519;-62
2023/09/06 08:27:50;;;;;;;5.93;3.17;;;24.00;99.90;;;;;;5042778;28;20037;-63
2023/09/06 08:30:17;;;;;;;8.75;3.38;;;24.00;99.90;;;;;;5043762;28;20053;-62
2023/09/06 08:32:45;;;;;;;7.95;3.60;;;24.20;99.90;;;;;;5044309;28;20044;-61
2023/09/06 08:35:11;;;;;;;6.72;3.10;;;24.30;99.90;;;;;;5043917;28;20501;-63
2023/09/06 08:37:37;;;;;;;6.72;3.05;;;24.40;99.90;;;;;;5042975;28;20052;-63
2023/09/06 08:40:05;;;;;;;6.97;2.92;;;24.50;99.90;;;;;;5045699;28;20044;-64
2023/09/06 08:42:33;;;;;;;7.78;3.25;;;24.70;99.90;;;;;;5047373;28;20644;-63
2023/09/06 08:45:01;;;;;;;8.98;3.35;;;24.80;99.90;;;;;;5047092;28;20041;-62
2023/09/06 08:47:28;;;;;;;7.43;2.83;;;24.80;99.90;;;;;;5042864;28;20083;-64
2023/09/06 08:49:54;;;;;;;7.43;2.85;;;24.90;99.90;;;;;;5044899;28;20037;-62
2023/09/06 08:52:20;;;;;;;6.57;2.70;;;24.80;99.90;;;;;;5047245;28;20508;-65
2023/09/06 08:54:48;;;;;;;9.88;3.10;;;24.90;99.90;;;;;;5028677;28;20183;-64
2023/09/06 08:57:14;;;;;;;7.95;2.90;;;24.90;99.90;;;;;;5046213;28;20045;-65
2023/09/06 08:59:40;;;;;;;5.07;2.45;;;24.80;99.90;;;;;;5046587;28;20071;-67
2023/09/06 09:02:10;;;;;;;5.70;2.65;;;24.80;99.90;;;;;;5047089;28;20052;-62
2023/09/06 09:04:41;;;;;;;5.78;2.90;;;24.90;99.90;;;;;;5045745;28;20489;-65
2023/09/06 09:07:12;;;;;;;6.90;3.60;;;24.90;99.90;;;;;;5048884;28;20041;-62
2023/09/06 09:10:05;;;;;;;5.55;2.50;;;24.90;99.90;;;;;;5030459;28;20044;-62
2023/09/06 09:12:31;;;;;;;6.00;2.80;;;25.00;99.90;;;;;;5045869;28;20044;-63
2023/09/06 09:14:58;;;;;;;7.03;2.70;;;25.00;99.90;;;;;;5046362;28;20615;-62
2023/09/06 09:17:25;;;;;;;5.78;2.85;;;25.10;99.90;;;;;;5047024;28;20049;-63
2023/09/06 09:19:53;;;;;;;7.47;2.55;;;25.20;99.90;;;;;;5045991;28;20048;-63
2023/09/06 09:22:37;;;;;;;6.93;2.78;;;25.20;99.90;;;;;;5046348;28;20521;-62
2023/09/06 09:25:04;;;;;;;;;;;25.30;99.90;;;;;;5027058;28;20080;-63
2023/09/06 09:27:32;;;;;;;7.63;2.70;;;25.30;99.90;;;;;;5049513;28;20588;-63
2023/09/06 09:30:01;;;;;;;7.43;2.63;;;25.30;99.90;;;;;;5046716;28;20065;-64
2023/09/06 09:32:30;;;;;;;7.18;2.95;;;25.30;99.90;;;;;;5045234;28;20033;-62
2023/09/06 09:34:55;;;;;;;5.65;2.45;;;25.40;99.90;;;;;;5046222;28;20446;-62
2023/09/06 09:37:22;;;;;;;8.60;2.80;;;25.40;99.90;;;;;;5046654;28;20049;-64
2023/09/06 09:39:47;;;;;;;8.63;2.75;;;25.50;99.90;;;;;;5045417;28;20463;-63
2023/09/06 09:42:14;;;;;;;6.40;2.70;;;25.60;99.90;;;;;;5044737;28;20041;-66
2023/09/06 09:44:40;;;;;;;9.55;2.88;;;25.60;99.90;;;;;;5029031;28;20040;-64
2023/09/06 09:47:14;;;;;;;7.45;2.63;;;25.80;99.90;;;;;;5029142;28;20041;-63
2023/09/06 09:49:43;;;;;;;8.32;2.70;;;25.90;99.90;;;;;;5045241;28;20032;-65
2023/09/06 09:52:14;;;;;;;7.22;2.60;;;26.00;99.90;;;;;;5051988;28;20029;-62
2023/09/06 09:54:47;;;;;;;8.18;2.63;;;26.10;99.90;;;;;;5030210;28;20052;-61
2023/09/06 09:57:14;;;;;;;7.40;2.75;;;26.20;99.90;;;;;;5044881;28;20055;-65
2023/09/06 09:59:40;;;;;;;7.78;2.78;;;26.30;99.90;;;;;;5046108;28;20048;-63
2023/09/06 10:02:08;;;;;;;5.75;2.50;;;26.40;99.90;;;;;;5046154;28;20064;-64
2023/09/06 10:04:36;;;;;;;6.00;2.63;;;26.50;99.90;;;;;;5045817;28;20055;-63
2023/09/06 10:07:08;;;;;;;8.38;2.97;;;26.60;99.90;;;;;;5046793;28;20045;-63
2023/09/06 10:09:37;;;;;;;7.00;2.35;;;26.60;99.90;;;;;;5045499;28;20072;-63
2023/09/06 10:12:05;;;;;;;7.60;2.47;;;26.60;99.90;;;;;;5028324;28;20040;-61
2023/09/06 10:14:33;;;;;;;7.90;2.33;;;26.70;99.90;;;;;;5028144;28;20534;-63
2023/09/06 10:17:00;;;;;;;6.82;2.53;;;26.80;99.90;;;;;;5047469;28;20048;-62
2023/09/06 10:19:27;;;;;;;6.70;2.53;;;26.90;99.90;;;;;;5046651;28;20751;-62
2023/09/06 10:21:53;;;;;;;5.70;2.58;;;27.00;99.90;;;;;;5045824;28;20045;-62
2023/09/06 10:24:21;;;;;;;5.65;2.67;;;27.00;99.90;;;;;;5044920;28;20121;-62
2023/09/06 10:26:48;;;;;;;8.55;2.80;;;27.10;99.90;;;;;;5045503;28;20412;-62
2023/09/06 10:29:22;;;;;;;6.90;2.50;;;27.20;99.90;;;;;;5044468;28;20080;-62
2023/09/06 10:31:48;;;;;;;;;;;27.20;99.90;;;;;;5044871;28;20041;-62
2023/09/06 10:34:14;;;;;;;5.30;2.65;;;27.20;99.90;;;;;;5045374;28;19960;-62
2023/09/06 10:36:56;;;;;;;5.18;2.47;;;27.20;99.90;;;;;;5047124;28;20087;-64
2023/09/06 10:39:28;;;;;;;7.18;2.88;;;27.20;99.90;;;;;;5044848;28;20480;-61
2023/09/06 10:42:08;;;;;;;5.85;2.47;;;27.30;99.90;;;;;;5028429;28;20045;-64
2023/09/06 10:44:56;;;;;;;6.82;2.38;;;27.30;99.90;;;;;;5044239;28;20124;-61
2023/09/06 10:47:28;;;;;;;8.02;2.38;;;27.40;99.90;;;;;;5047040;28;20060;-62
2023/09/06 10:50:07;;;;;;;5.90;2.55;;;27.50;99.90;;;;;;5045998;28;20587;-65
2023/09/06 10:52:49;;;;;;;5.22;2.08;;;27.60;98.80;;;;;;5045401;28;20044;-63
2023/09/06 10:55:21;;;;;;;7.15;2.25;;;27.70;98.90;;;;;;5029054;28;20044;-63
2023/09/06 10:57:48;;;;;;;4.90;2.10;;;27.80;99.00;;;;;;5045449;28;20079;-62
2023/09/06 11:00:25;;;;;;;7.45;2.60;;;27.90;98.20;;;;;;5045142;28;20044;-62
2023/09/06 11:03:06;;;;;;;4.72;2.05;;;28.00;97.30;;;;;;5044382;28;20088;-63
2023/09/06 11:05:46;;;;;;;8.20;2.30;;;28.00;96.30;;;;;;5061938;28;20044;-62
2023/09/06 11:08:29;;;;;;;6.70;2.10;;;28.00;96.40;;;;;;5046719;28;20388;-62
2023/09/06 11:11:07;;;;;;;8.07;2.17;;;28.00;96.50;;;;;;5045576;28;20095;-61
2023/09/06 11:13:33;;;;;;;5.57;2.42;;;28.00;97.00;;;;;;5043277;28;20347;-64
2023/09/06 11:16:00;;;;;;;6.38;2.53;;;28.10;97.10;;;;;;5044017;28;20065;-61
2023/09/06 11:18:27;;;;;;;6.28;2.45;;;28.10;96.60;;;;;;5044923;28;20040;-60
2023/09/06 11:20:53;;;;;;;9.27;2.20;;;28.20;97.20;;;;;;5044650;28;20140;-61
2023/09/06 11:23:19;;;;;;;6.78;2.40;;;28.20;96.80;;;;;;5046042;28;20120;-62
2023/09/06 11:25:45;;;;;;;7.03;2.28;;;28.30;96.60;;;;;;5045417;28;20044;-61
2023/09/06 11:28:18;;;;;;;7.20;2.22;;;28.30;96.30;;;;;;5043319;28;20444;-62
2023/09/06 11:30:46;;;;;;;;;;;28.30;96.40;;;;;;5046868;28;20072;-62
2023/09/06 11:33:16;;;;;;;5.82;1.95;;;28.30;97.00;;;;;;5045958;28;19921;-62
2023/09/06 11:35:56;;;;;;;6.97;2.15;;;28.30;96.80;;;;;;5044156;28;20037;-62
2023/09/06 11:38:28;;;;;;;8.63;2.75;;;28.40;96.90;;;;;;5044933;28;20292;-63
2023/09/06 11:40:56;;;;;;;4.55;1.80;;;28.40;97.00;;;;;;5044589;28;20103;-65
2023/09/06 11:43:23;;;;;;;6.20;2.10;;;28.40;96.20;;;;;;5044706;28;20146;-61
2023/09/06 11:45:53;;;;;;;7.03;2.20;;;28.40;95.80;;;;;;5044014;28;20056;-63
2023/09/06 11:48:25;;;;;;;9.85;2.30;;;28.40;95.40;;;;;;5044513;28;20049;-63
2023/09/06 11:50:58;;;;;;;5.32;2.30;;;28.40;94.90;;;;;;5044544;28;20045;-63
2023/09/06 11:53:25;;;;;;;5.15;2.30;;;28.40;95.10;;;;;;5044911;28;20591;-61
2023/09/06 11:55:52;;;;;;;5.65;2.13;;;28.40;95.10;;;;;;5046173;28;20049;-62
2023/09/06 11:58:20;;;;;;;6.00;1.98;;;28.60;95.60;;;;;;5043991;28;20045;-61
2023/09/06 12:00:48;;;;;;;8.85;2.22;;;28.60;95.20;;;;;;5044646;28;20063;-63
2023/09/06 12:03:20;;;;;;;4.88;1.92;;;28.70;94.90;;;;;;5045058;28;20045;-62
2023/09/06 12:05:51;;;;;;;4.20;1.80;;;28.80;94.90;;;;;;5044854;28;20048;-63
2023/09/06 12:08:22;;;;;;;5.75;2.00;;;28.80;95.10;;;;;;5044685;28;20051;-63
2023/09/06 12:10:54;;;;;;;4.38;1.98;;;28.80;95.40;;;;;;5043659;28;20118;-63
2023/09/06 12:13:34;;;;;;;6.40;2.08;;;28.80;95.70;;;;;;5043365;28;20481;-60
2023/09/06 12:16:01;;;;;;;7.68;2.20;;;28.80;95.40;;;;;;5049278;28;20049;-62
2023/09/06 12:18:28;;;;;;;6.30;2.20;;;28.80;95.50;;;;;;5048265;28;20036;-61
2023/09/06 12:20:57;;;;;;;7.28;2.30;;;28.90;95.40;;;;;;5050007;28;20048;-61
2023/09/06 12:23:25;;;;;;;9.95;2.28;;;28.90;95.40;;;;;;5047418;28;20072;-63
2023/09/06 12:25:51;;;;;;;5.43;2.25;;;28.90;95.10;;;;;;5046954;28;20064;-61
2023/09/06 12:28:17;;;;;;;5.00;2.10;;;29.00;95.40;;;;;;5047728;28;20041;-61
2023/09/06 12:30:44;;;;;;;5.60;2.10;;;28.90;95.50;;;;;;5048917;28;20095;-63
2023/09/06 12:33:09;;;;;;;5.85;2.00;;;29.00;95.50;;;;;;5046882;28;20115;-64
2023/09/06 12:35:38;;;;;;;7.10;2.13;;;29.00;95.30;;;;;;5047714;28;20060;-64
2023/09/06 12:38:06;;;;;;;5.28;2.05;;;29.00;95.20;;;;;;5064613;28;20504;-64
2023/09/06 12:40:32;;;;;;;5.03;2.08;;;29.00;94.90;;;;;;5047541;28;20045;-60
2023/09/06 12:42:58;;;;;;;5.50;2.03;;;29.00;95.30;;;;;;5045560;28;20052;-61